createdAt,value
2023-03-25T00:00:39.592Z,8.10
2023-03-25T00:03:11.350Z,7.70
2023-03-25T00:05:43.121Z,7.60
2023-03-25T00:08:14.912Z,7.40
2023-03-25T00:10:51.569Z,7.30
2023-03-25T00:13:23.671Z,7.30
2023-03-25T00:15:58.329Z,7.20
2023-03-25T00:18:34.263Z,7.20
2023-03-25T00:21:10.733Z,7.30
2023-03-25T00:23:42.786Z,7.20
2023-03-25T00:26:14.676Z,7.20
2023-03-25T00:28:46.467Z,7.20
2023-03-25T00:31:18.319Z,7.10
2023-03-25T00:33:50.779Z,7.10
2023-03-25T00:36:22.516Z,7.10
2023-03-25T00:38:54.280Z,7.10
2023-03-25T00:41:26.979Z,7.10
2023-03-25T00:44:00.849Z,7.10
2023-03-25T00:46:33.951Z,7.10
2023-03-25T00:49:05.863Z,7.10
2023-03-25T00:51:52.879Z,7.10
2023-03-25T00:54:25.880Z,7.10
2023-03-25T00:56:57.586Z,7.10
2023-03-25T00:59:29.400Z,7.00
2023-03-25T01:02:02.801Z,7.00
2023-03-25T01:04:35.391Z,7.00
2023-03-25T01:07:07.857Z,6.90
2023-03-25T01:09:41.596Z,7.00
2023-03-25T01:12:19.047Z,6.90
2023-03-25T01:14:51.046Z,6.90
2023-03-25T01:17:23.075Z,6.80
2023-03-25T01:19:54.916Z,6.80
2023-03-25T01:22:26.641Z,6.80
2023-03-25T01:24:58.441Z,6.80
2023-03-25T01:27:30.694Z,6.70
2023-03-25T01:30:02.821Z,6.80
2023-03-25T01:32:34.576Z,6.80
2023-03-25T01:35:07.546Z,6.80
2023-03-25T01:37:39.548Z,6.80
2023-03-25T01:40:17.951Z,6.80
2023-03-25T01:42:50.380Z,6.80
2023-03-25T01:45:32.722Z,6.90
2023-03-25T01:48:33.008Z,6.90
2023-03-25T01:51:18.267Z,6.90
2023-03-25T01:53:53.254Z,6.90
2023-03-25T01:56:31.800Z,6.90
2023-03-25T01:59:06.849Z,6.90
2023-03-25T02:01:38.586Z,6.80
2023-03-25T02:04:12.125Z,6.80
2023-03-25T02:06:57.308Z,6.90
2023-03-25T02:09:29.256Z,6.80
2023-03-25T02:12:01.147Z,6.80
2023-03-25T02:14:37.128Z,6.80
2023-03-25T02:17:44.144Z,6.80
2023-03-25T02:20:30.994Z,6.80
2023-03-25T02:23:42.268Z,6.80
2023-03-25T02:26:42.023Z,6.80
2023-03-25T02:29:50.076Z,6.80
2023-03-25T02:33:11.415Z,6.90
2023-03-25T02:36:11.522Z,6.90
2023-03-25T02:39:19.710Z,7.00
2023-03-25T02:41:53.655Z,7.00
2023-03-25T02:44:40.945Z,7.00
2023-03-25T02:47:17.583Z,6.90
2023-03-25T02:49:58.420Z,6.90
2023-03-25T02:52:34.365Z,6.80
2023-03-25T02:55:10.425Z,6.70
2023-03-25T02:57:46.536Z,6.60
2023-03-25T03:00:23.216Z,6.50
2023-03-25T03:03:01.431Z,6.40
2023-03-25T03:05:36.061Z,6.30
2023-03-25T03:08:18.952Z,6.20
2023-03-25T03:11:15.308Z,6.20
2023-03-25T03:14:14.306Z,6.10
2023-03-25T03:16:58.308Z,6.10
2023-03-25T03:19:31.566Z,6.10
2023-03-25T03:22:18.673Z,6.10
2023-03-25T03:25:09.535Z,6.10
2023-03-25T03:27:41.836Z,6.00
2023-03-25T03:30:16.416Z,6.00
2023-03-25T03:33:01.105Z,6.00
2023-03-25T03:36:02.231Z,6.00
2023-03-25T03:38:40.307Z,6.00
2023-03-25T03:41:17.941Z,6.00
2023-03-25T03:44:00.446Z,6.00
2023-03-25T03:46:51.220Z,6.00
2023-03-25T03:49:29.147Z,6.00
2023-03-25T03:52:09.892Z,6.00
2023-03-25T03:55:00.787Z,6.00
2023-03-25T03:57:57.141Z,6.00
2023-03-25T04:00:59.274Z,6.00
2023-03-25T04:03:40.391Z,6.10
2023-03-25T04:06:38.597Z,6.10
2023-03-25T04:09:54.701Z,6.10
2023-03-25T04:12:29.114Z,6.10
2023-03-25T04:15:03.289Z,6.00
2023-03-25T04:17:35.041Z,6.00
2023-03-25T04:20:11.047Z,6.00
2023-03-25T04:22:46.081Z,6.00
2023-03-25T04:25:18.644Z,6.00
2023-03-25T04:27:53.769Z,5.90
2023-03-25T04:30:27.846Z,5.80
2023-03-25T04:33:00.647Z,5.80
2023-03-25T04:35:33.113Z,5.70
2023-03-25T04:38:05.678Z,5.70
2023-03-25T04:40:40.618Z,5.70
2023-03-25T04:43:16.924Z,5.80
2023-03-25T04:45:55.061Z,5.80
2023-03-25T04:48:30.549Z,5.70
2023-03-25T04:51:03.738Z,5.60
2023-03-25T04:53:35.973Z,5.50
2023-03-25T04:56:16.532Z,5.50
2023-03-25T04:58:48.393Z,5.50
2023-03-25T05:01:32.808Z,5.60
2023-03-25T05:04:05.686Z,5.70
2023-03-25T05:06:39.631Z,5.70
2023-03-25T05:09:17.298Z,5.80
2023-03-25T05:11:53.274Z,5.80
2023-03-25T05:14:25.071Z,5.70
2023-03-25T05:16:59.288Z,5.70
2023-03-25T05:19:34.889Z,5.70
2023-03-25T05:22:07.759Z,5.80
2023-03-25T05:24:39.523Z,5.90
2023-03-25T05:27:11.316Z,5.80
2023-03-25T05:29:44.538Z,5.80
2023-03-25T05:32:19.424Z,5.80
2023-03-25T05:34:51.459Z,5.90
2023-03-25T05:37:23.290Z,6.00
2023-03-25T05:39:55.250Z,6.00
2023-03-25T05:42:27.430Z,6.10
2023-03-25T05:44:59.098Z,6.00
2023-03-25T05:47:31.517Z,6.20
2023-03-25T05:50:03.356Z,6.30
2023-03-25T05:52:36.673Z,6.40
2023-03-25T05:55:14.404Z,6.50
2023-03-25T05:57:46.210Z,6.50
2023-03-25T06:00:19.453Z,6.60
2023-03-25T06:02:52.234Z,6.70
2023-03-25T06:05:24.238Z,6.70
2023-03-25T06:14:05.525Z,6.70
2023-03-25T06:16:37.258Z,6.70
2023-03-25T06:19:09.451Z,6.70
2023-03-25T06:21:41.135Z,6.80
2023-03-25T06:24:12.838Z,6.80
2023-03-25T06:26:44.664Z,6.90
2023-03-25T06:29:16.489Z,6.90
2023-03-25T06:31:48.273Z,6.90
2023-03-25T06:34:21.570Z,6.90
2023-03-25T06:36:54.496Z,6.90
2023-03-25T06:39:26.461Z,6.90
2023-03-25T06:41:59.514Z,6.90
2023-03-25T06:44:33.345Z,6.90
2023-03-25T06:47:06.673Z,6.90
2023-03-25T06:49:38.509Z,6.90
2023-03-25T06:52:11.862Z,6.90
2023-03-25T06:54:43.618Z,6.90
2023-03-25T06:57:15.497Z,7.00
2023-03-25T06:59:48.232Z,7.10
2023-03-25T07:02:20.016Z,7.20
2023-03-25T07:04:51.812Z,7.40
2023-03-25T07:07:23.635Z,7.40
2023-03-25T07:09:56.007Z,7.50
2023-03-25T07:12:27.758Z,7.50
2023-03-25T07:14:59.440Z,7.70
2023-03-25T07:17:31.195Z,7.90
2023-03-25T07:20:05.564Z,7.90
2023-03-25T07:22:37.406Z,7.90
2023-03-25T07:25:09.572Z,7.80
2023-03-25T07:27:41.330Z,7.60
2023-03-25T07:30:13.514Z,7.60
2023-03-25T07:32:46.185Z,7.60
2023-03-25T07:35:18.099Z,7.60
2023-03-25T07:37:49.920Z,7.60
2023-03-25T07:40:21.743Z,7.50
2023-03-25T07:42:53.471Z,7.40
2023-03-25T07:45:25.468Z,7.40
2023-03-25T07:47:57.314Z,7.40
2023-03-25T07:50:29.180Z,7.50
2023-03-25T07:53:01.134Z,7.60
2023-03-25T07:55:33.049Z,7.70
2023-03-25T07:58:04.838Z,7.80
2023-03-25T08:00:36.678Z,7.90
2023-03-25T08:03:11.390Z,8.10
2023-03-25T08:05:47.882Z,8.20
2023-03-25T08:08:19.798Z,8.40
2023-03-25T08:10:51.639Z,8.40
2023-03-25T08:13:23.678Z,8.40
2023-03-25T08:15:55.527Z,8.40
2023-03-25T08:18:27.585Z,8.30
2023-03-25T08:20:59.446Z,8.40
2023-03-25T08:23:31.602Z,8.40
2023-03-25T08:26:05.552Z,8.20
2023-03-25T08:28:37.356Z,7.90
2023-03-25T08:31:09.486Z,7.60
2023-03-25T08:33:41.673Z,7.50
2023-03-25T08:36:14.458Z,7.40
2023-03-25T08:38:47.370Z,7.30
2023-03-25T08:41:19.172Z,7.30
2023-03-25T08:43:51.074Z,7.40
2023-03-25T08:46:23.122Z,7.50
2023-03-25T08:48:56.081Z,7.70
2023-03-25T08:51:28.050Z,7.70
2023-03-25T08:54:01.028Z,7.70
2023-03-25T08:56:32.867Z,7.60
2023-03-25T08:59:04.636Z,7.50
2023-03-25T09:01:37.013Z,7.50
2023-03-25T09:04:09.013Z,7.50
2023-03-25T09:06:47.668Z,7.40
2023-03-25T09:09:32.860Z,7.40
2023-03-25T09:12:06.422Z,7.40
2023-03-25T09:14:38.545Z,7.40
2023-03-25T09:17:10.857Z,7.50
2023-03-25T09:19:42.665Z,7.60
2023-03-25T09:22:14.985Z,7.70
2023-03-25T09:24:46.862Z,7.70
2023-03-25T09:27:18.612Z,7.80
2023-03-25T09:29:50.412Z,7.90
2023-03-25T09:32:22.307Z,8.00
2023-03-25T09:34:54.124Z,8.20
2023-03-25T09:37:26.126Z,8.30
2023-03-25T09:39:57.992Z,8.20
2023-03-25T09:42:47.151Z,8.20
2023-03-25T09:45:25.084Z,8.30
2023-03-25T09:48:06.192Z,8.30
2023-03-25T09:50:39.519Z,8.30
2023-03-25T09:53:17.397Z,8.30
2023-03-25T09:55:50.527Z,8.20
2023-03-25T09:58:34.002Z,8.30
2023-03-25T10:01:21.178Z,8.50
2023-03-25T10:04:23.217Z,9.30
2023-03-25T10:07:07.040Z,10.20
2023-03-25T10:09:54.609Z,10.50
2023-03-25T10:12:31.641Z,10.30
2023-03-25T10:15:28.096Z,10.30
2023-03-25T10:17:59.876Z,10.80
2023-03-25T10:21:01.620Z,11.10
2023-03-25T10:23:59.633Z,11.60
2023-03-25T10:26:44.074Z,12.60
2023-03-25T10:29:23.235Z,13.10
2023-03-25T10:31:59.944Z,14.00
2023-03-25T10:34:40.373Z,14.50
2023-03-25T10:37:18.072Z,13.90
2023-03-25T10:39:50.614Z,12.60
2023-03-25T10:42:32.779Z,12.30
2023-03-25T10:45:13.137Z,11.80
2023-03-25T10:47:47.442Z,11.20
2023-03-25T10:50:20.636Z,11.20
2023-03-25T10:52:52.597Z,11.50
2023-03-25T10:55:31.486Z,11.40
2023-03-25T10:58:04.481Z,11.30
2023-03-25T11:00:36.204Z,11.20
2023-03-25T11:03:20.601Z,11.20
2023-03-25T11:05:54.062Z,11.00
2023-03-25T11:08:27.191Z,10.80
2023-03-25T11:11:00.956Z,11.10
2023-03-25T11:13:35.093Z,11.90
2023-03-25T11:16:08.005Z,13.40
2023-03-25T11:18:40.833Z,14.70
2023-03-25T11:21:14.072Z,14.40
2023-03-25T11:23:48.591Z,13.80
2023-03-25T11:26:27.049Z,12.90
2023-03-25T11:29:11.850Z,12.60
2023-03-25T11:31:44.004Z,12.20
2023-03-25T11:34:25.269Z,11.50
2023-03-25T11:37:14.782Z,10.60
2023-03-25T11:39:55.371Z,10.00
2023-03-25T11:42:37.450Z,9.90
2023-03-25T11:45:27.045Z,10.00
2023-03-25T11:48:02.391Z,10.10
2023-03-25T11:50:35.529Z,10.40
2023-03-25T11:53:07.359Z,10.70
2023-03-25T11:56:08.344Z,11.00
2023-03-25T11:58:40.679Z,11.40
2023-03-25T12:01:47.137Z,11.50
2023-03-25T12:04:22.367Z,11.50
2023-03-25T12:06:59.020Z,11.50
2023-03-25T12:09:32.001Z,11.70
2023-03-25T12:12:24.891Z,11.90
2023-03-25T12:15:13.912Z,12.10
2023-03-25T12:17:59.342Z,12.20
2023-03-25T12:20:49.493Z,12.00
2023-03-25T12:23:36.742Z,12.00
2023-03-25T12:26:11.770Z,12.10
2023-03-25T12:28:49.479Z,12.20
2023-03-25T12:31:48.382Z,12.40
2023-03-25T12:34:39.613Z,12.30
2023-03-25T12:37:50.266Z,12.40
2023-03-25T12:40:30.777Z,12.40
2023-03-25T12:43:14.161Z,12.20
2023-03-25T12:46:14.326Z,11.90
2023-03-25T12:48:49.140Z,11.50
2023-03-25T12:51:34.102Z,11.40
2023-03-25T12:54:27.632Z,11.20
2023-03-25T12:57:30.568Z,11.00
2023-03-25T13:00:21.293Z,10.60
2023-03-25T13:03:13.143Z,10.60
2023-03-25T13:06:04.492Z,10.50
2023-03-25T13:08:38.696Z,10.60
2023-03-25T13:11:18.598Z,10.80
2023-03-25T13:13:53.718Z,11.00
2023-03-25T13:16:28.980Z,11.10
2023-03-25T13:19:09.649Z,11.40
2023-03-25T13:21:52.494Z,11.50
2023-03-25T13:24:45.586Z,11.30
2023-03-25T13:27:17.835Z,10.80
2023-03-25T13:29:58.431Z,10.20
2023-03-25T13:32:47.967Z,10.00
2023-03-25T13:35:36.068Z,10.10
2023-03-25T13:38:16.228Z,10.30
2023-03-25T13:41:16.633Z,10.60
2023-03-25T13:44:07.144Z,10.70
2023-03-25T13:46:44.782Z,10.90
2023-03-25T13:49:25.654Z,11.10
2023-03-25T13:51:59.132Z,11.20
2023-03-25T13:54:39.501Z,11.20
2023-03-25T13:57:58.355Z,11.20
2023-03-25T14:00:46.450Z,11.30
2023-03-25T14:03:36.643Z,11.60
2023-03-25T14:06:14.290Z,11.80
2023-03-25T14:09:01.146Z,11.90
2023-03-25T14:12:02.493Z,11.90
2023-03-25T14:14:56.487Z,11.80
2023-03-25T14:17:31.081Z,11.60
2023-03-25T14:20:08.235Z,11.60
2023-03-25T14:22:43.765Z,11.70
2023-03-25T14:25:29.717Z,11.70
2023-03-25T14:28:03.843Z,11.80
2023-03-25T14:30:36.649Z,12.00
2023-03-25T14:33:10.566Z,12.00
2023-03-25T14:35:47.524Z,12.10
2023-03-25T14:38:21.824Z,12.20
2023-03-25T14:41:02.867Z,12.00
2023-03-25T14:43:38.300Z,12.00
2023-03-25T14:46:13.803Z,11.90
2023-03-25T14:48:52.708Z,11.90
2023-03-25T14:51:27.530Z,11.90
2023-03-25T14:54:36.006Z,11.90
2023-03-25T14:57:10.022Z,11.90
2023-03-25T15:00:09.712Z,11.90
2023-03-25T15:02:44.381Z,12.00
2023-03-25T15:05:27.662Z,11.80
2023-03-25T15:08:24.425Z,11.90
2023-03-25T15:11:36.326Z,12.00
2023-03-25T15:14:19.200Z,11.80
2023-03-25T15:16:51.037Z,11.80
2023-03-25T15:19:22.992Z,11.80
2023-03-25T15:21:57.856Z,11.80
2023-03-25T15:24:35.023Z,11.70
2023-03-25T15:27:40.988Z,11.60
2023-03-25T15:30:27.805Z,11.40
2023-03-25T15:32:59.573Z,11.30
2023-03-25T15:35:48.427Z,11.10
2023-03-25T15:38:41.557Z,11.00
2023-03-25T15:41:22.391Z,11.00
2023-03-25T15:44:34.380Z,11.00
2023-03-25T15:47:25.003Z,10.90
2023-03-25T15:50:19.534Z,10.90
2023-03-25T15:53:35.800Z,10.90
2023-03-25T15:56:16.462Z,10.80
2023-03-25T15:59:14.293Z,10.80
2023-03-25T16:01:51.581Z,10.80
2023-03-25T16:04:40.043Z,10.80
2023-03-25T16:07:15.486Z,10.80
2023-03-25T16:09:49.017Z,10.80
2023-03-25T16:12:23.796Z,10.70
2023-03-25T16:14:55.558Z,10.70
2023-03-25T16:17:34.401Z,10.70
2023-03-25T16:20:07.726Z,10.60
2023-03-25T16:22:43.902Z,10.60
2023-03-25T16:25:38.239Z,10.50
2023-03-25T16:28:32.692Z,10.50
2023-03-25T16:31:04.950Z,10.40
2023-03-25T16:33:39.613Z,10.40
2023-03-25T16:36:17.623Z,10.40
2023-03-25T16:38:49.628Z,10.40
2023-03-25T16:41:21.425Z,10.40
2023-03-25T16:43:54.901Z,10.50
2023-03-25T16:46:28.122Z,10.50
2023-03-25T16:49:00.765Z,10.50
2023-03-25T16:51:36.786Z,10.50
2023-03-25T16:54:10.897Z,10.40
2023-03-25T16:56:43.593Z,10.40
2023-03-25T16:59:15.293Z,10.40
2023-03-25T17:01:58.549Z,10.40
2023-03-25T17:04:41.795Z,10.40
2023-03-25T17:07:20.753Z,10.40
2023-03-25T17:09:58.930Z,10.40
2023-03-25T17:12:30.679Z,10.30
2023-03-25T17:15:07.019Z,10.30
2023-03-25T17:17:48.730Z,10.30
2023-03-25T17:20:37.820Z,10.30
2023-03-25T17:23:27.233Z,10.30
2023-03-25T17:26:11.030Z,10.20
2023-03-25T17:29:00.000Z,10.20
2023-03-25T17:31:33.847Z,10.10
2023-03-25T17:34:31.862Z,10.10
2023-03-25T17:37:03.917Z,10.00
2023-03-25T17:39:36.354Z,10.00
2023-03-25T17:42:19.397Z,9.90
2023-03-25T17:44:52.150Z,9.90
2023-03-25T17:47:23.982Z,9.80
2023-03-25T17:49:56.598Z,9.80
2023-03-25T17:52:30.713Z,9.70
2023-03-25T17:55:03.677Z,9.70
2023-03-25T17:57:37.439Z,9.70
2023-03-25T18:00:16.138Z,9.60
2023-03-25T18:02:48.164Z,9.70
2023-03-25T18:05:20.010Z,9.70
2023-03-25T18:07:51.792Z,9.60
2023-03-25T18:10:25.568Z,9.60
2023-03-25T18:12:57.408Z,9.50
2023-03-25T18:15:30.085Z,9.50
2023-03-25T18:18:02.472Z,9.40
2023-03-25T18:20:37.375Z,9.30
2023-03-25T18:23:10.331Z,9.20
2023-03-25T18:25:44.978Z,9.20
2023-03-25T18:28:17.200Z,9.10
2023-03-25T18:30:55.576Z,9.10
2023-03-25T18:33:28.656Z,9.00
2023-03-25T18:36:00.537Z,8.90
2023-03-25T18:38:32.449Z,8.80
2023-03-25T18:41:04.607Z,8.70
2023-03-25T18:43:36.435Z,8.60
2023-03-25T18:46:12.612Z,8.60
2023-03-25T18:48:44.457Z,8.50
2023-03-25T18:51:16.370Z,8.50
2023-03-25T18:53:49.308Z,8.50
2023-03-25T18:56:21.808Z,8.50
2023-03-25T18:58:53.661Z,8.40
2023-03-25T19:01:26.574Z,8.30
2023-03-25T19:04:02.909Z,8.30
2023-03-25T19:06:37.622Z,8.30
2023-03-25T19:09:18.445Z,8.20
2023-03-25T19:11:50.419Z,8.10
2023-03-25T19:14:22.088Z,8.10
2023-03-25T19:17:03.695Z,8.00
2023-03-25T19:19:36.820Z,8.00
2023-03-25T19:22:09.764Z,8.00
2023-03-25T19:24:41.768Z,8.00
2023-03-25T19:27:13.512Z,8.00
2023-03-25T19:29:45.602Z,8.00
2023-03-25T19:32:17.677Z,8.00
2023-03-25T19:34:51.419Z,8.00
2023-03-25T19:37:26.660Z,8.10
2023-03-25T19:39:58.445Z,8.10
2023-03-25T19:42:30.325Z,8.20
2023-03-25T19:45:04.232Z,8.10
2023-03-25T19:47:42.072Z,8.10
2023-03-25T19:50:19.598Z,8.10
2023-03-25T19:52:53.026Z,8.00
2023-03-25T19:55:25.372Z,8.00
2023-03-25T19:57:57.108Z,7.90
2023-03-25T20:00:29.358Z,7.80
2023-03-25T20:03:02.079Z,7.70
2023-03-25T20:05:35.941Z,7.50
2023-03-25T20:08:09.433Z,7.30
2023-03-25T20:10:41.406Z,7.10
2023-03-25T20:13:16.322Z,7.10
2023-03-25T20:15:51.875Z,7.00
2023-03-25T20:18:23.934Z,7.00
2023-03-25T20:20:55.998Z,7.00
2023-03-25T20:23:27.872Z,7.00
2023-03-25T20:25:59.673Z,7.00
2023-03-25T20:28:31.569Z,6.90
2023-03-25T20:31:14.996Z,6.90
2023-03-25T20:33:47.498Z,6.90
2023-03-25T20:36:20.137Z,6.90
2023-03-25T20:38:57.807Z,6.90
2023-03-25T20:41:29.838Z,6.90
2023-03-25T20:44:01.691Z,6.80
2023-03-25T20:46:33.601Z,6.70
2023-03-25T20:49:08.945Z,6.70
2023-03-25T20:51:41.720Z,6.60
2023-03-25T20:54:17.418Z,6.60
2023-03-25T20:56:51.278Z,6.70
2023-03-25T20:59:23.357Z,6.70
2023-03-25T21:01:55.360Z,6.70
2023-03-25T21:04:28.006Z,6.70
2023-03-25T21:06:59.972Z,6.70
2023-03-25T21:09:32.515Z,6.80
2023-03-25T21:12:04.602Z,6.80
2023-03-25T21:14:37.861Z,6.80
2023-03-25T21:17:09.921Z,6.80
2023-03-25T21:19:42.707Z,6.80
2023-03-25T21:22:14.564Z,6.80
2023-03-25T21:24:46.348Z,6.80
2023-03-25T21:27:18.208Z,6.80
2023-03-25T21:29:50.064Z,6.80
2023-03-25T21:32:21.936Z,6.80
2023-03-25T21:34:54.334Z,6.90
2023-03-25T21:37:26.995Z,6.90
2023-03-25T21:39:59.548Z,7.00
2023-03-25T21:42:31.377Z,7.00
2023-03-25T21:45:03.390Z,7.10
2023-03-25T21:47:36.179Z,7.20
2023-03-25T21:50:10.415Z,7.20
2023-03-25T21:52:48.702Z,7.20
2023-03-25T21:55:22.349Z,7.20
2023-03-25T21:57:54.186Z,7.20
2023-03-25T22:00:26.608Z,7.20
2023-03-25T22:02:58.553Z,7.10
2023-03-25T22:05:32.768Z,7.20
2023-03-25T22:08:06.800Z,7.20
2023-03-25T22:10:38.575Z,7.20
2023-03-25T22:13:10.487Z,7.20
2023-03-25T22:15:42.366Z,7.20
2023-03-25T22:18:14.148Z,7.10
2023-03-25T22:20:46.318Z,7.10
2023-03-25T22:23:18.349Z,7.10
2023-03-25T22:25:50.346Z,7.10
2023-03-25T22:28:22.115Z,7.00
2023-03-25T22:30:54.012Z,7.00
2023-03-25T22:33:26.712Z,7.00
2023-03-25T22:36:06.582Z,7.00
2023-03-25T22:38:44.467Z,6.90
2023-03-25T22:41:17.082Z,6.70
2023-03-25T22:43:49.237Z,6.70
2023-03-25T22:46:21.689Z,6.80
2023-03-25T22:48:53.585Z,6.90
2023-03-25T22:51:26.397Z,7.00
2023-03-25T22:53:58.699Z,7.10
2023-03-25T22:56:33.838Z,7.10
2023-03-25T22:59:07.388Z,7.20
2023-03-25T23:01:40.059Z,7.10
2023-03-25T23:04:12.274Z,7.20
2023-03-25T23:06:51.125Z,7.20
2023-03-25T23:09:41.193Z,7.10
2023-03-25T23:12:16.011Z,7.00
2023-03-25T23:14:51.022Z,6.90
2023-03-25T23:17:26.681Z,6.80
2023-03-25T23:19:58.704Z,6.70
2023-03-25T23:22:30.894Z,6.70
2023-03-25T23:25:04.605Z,6.70
2023-03-25T23:27:36.434Z,6.70
2023-03-25T23:30:08.568Z,6.80
2023-03-25T23:32:42.141Z,6.80
2023-03-25T23:35:14.085Z,6.80
2023-03-25T23:37:46.324Z,6.80
2023-03-25T23:40:18.265Z,6.70
2023-03-25T23:42:50.089Z,6.70
2023-03-25T23:45:29.810Z,6.70
2023-03-25T23:48:01.732Z,6.60
2023-03-25T23:50:33.613Z,6.60
2023-03-25T23:53:05.429Z,6.60
2023-03-25T23:55:37.236Z,6.60
2023-03-25T23:58:09.031Z,6.60
